createdAt,value
2022-08-08T00:02:03.994Z,3.08
2022-08-08T00:07:28.594Z,4.00
2022-08-08T00:13:20.708Z,3.97
2022-08-08T00:19:13.581Z,4.47
2022-08-08T00:24:45.552Z,4.15
2022-08-08T00:30:11.132Z,5.50
2022-08-08T00:35:48.241Z,5.15
2022-08-08T00:42:08.266Z,4.00
2022-08-08T00:48:05.070Z,4.00
2022-08-08T00:53:57.087Z,2.90
2022-08-08T00:59:44.333Z,2.92
2022-08-08T01:05:59.354Z,3.10
2022-08-08T01:11:40.959Z,3.40
2022-08-08T01:17:25.285Z,3.20
2022-08-08T01:24:06.492Z,2.83
2022-08-08T01:29:59.828Z,2.90
2022-08-08T01:35:40.399Z,2.80
2022-08-08T01:41:22.589Z,3.17
2022-08-08T01:48:15.587Z,3.25
2022-08-08T01:55:26.314Z,3.17
2022-08-08T02:00:01.688Z,3.63
2022-08-08T02:05:56.476Z,3.03
2022-08-08T02:11:53.065Z,2.85
2022-08-08T02:17:24.784Z,2.80
2022-08-08T02:23:00.593Z,3.10
2022-08-08T02:28:48.174Z,3.58
2022-08-08T02:34:33.329Z,3.92
2022-08-08T02:40:13.264Z,5.03
2022-08-08T02:45:56.755Z,4.38
2022-08-08T02:51:55.577Z,3.35
2022-08-08T03:05:05.355Z,3.45
2022-08-08T03:09:33.145Z,3.33
2022-08-08T03:15:59.704Z,3.38
2022-08-08T03:20:54.939Z,3.22
2022-08-08T03:26:23.085Z,3.17
2022-08-08T03:32:06.594Z,4.15
2022-08-08T03:38:55.095Z,3.22
2022-08-08T03:43:18.059Z,3.72
2022-08-08T03:49:09.837Z,3.47
2022-08-08T03:54:52.592Z,3.45
2022-08-08T04:00:12.213Z,3.20
2022-08-08T04:05:49.844Z,3.15
2022-08-08T04:11:17.404Z,2.95
2022-08-08T04:16:49.239Z,3.05
2022-08-08T04:22:11.265Z,3.25
2022-08-08T04:28:03.464Z,3.13
2022-08-08T04:33:18.450Z,3.08
2022-08-08T04:38:42.791Z,2.80
2022-08-08T04:44:05.638Z,2.65
2022-08-08T04:49:28.854Z,2.50
2022-08-08T04:55:09.701Z,2.40
2022-08-08T05:00:32.489Z,3.25
2022-08-08T05:05:54.961Z,2.70
2022-08-08T05:11:24.125Z,2.92
2022-08-08T05:16:53.956Z,2.97
2022-08-08T05:22:22.638Z,2.92
2022-08-08T05:27:44.527Z,2.72
2022-08-08T05:33:06.765Z,2.80
2022-08-08T05:38:32.079Z,2.55
2022-08-08T05:44:04.602Z,2.40
2022-08-08T05:49:26.890Z,2.10
2022-08-08T05:54:55.847Z,2.75
2022-08-08T06:00:27.235Z,1.90
2022-08-08T06:05:58.944Z,1.92
2022-08-08T06:11:22.213Z,1.50
2022-08-08T06:16:52.056Z,1.65
2022-08-08T06:28:00.865Z,1.70
2022-08-08T06:33:37.046Z,1.58
2022-08-08T06:39:15.130Z,1.55
2022-08-08T06:44:42.605Z,1.37
2022-08-08T06:50:06.527Z,1.55
2022-08-08T06:55:30.059Z,1.48
2022-08-08T07:01:01.792Z,1.83
2022-08-08T07:06:49.964Z,1.75
2022-08-08T07:12:18.170Z,1.42
2022-08-08T07:18:01.581Z,1.33
2022-08-08T07:24:01.264Z,1.00
2022-08-08T07:30:00.411Z,1.17
2022-08-08T07:35:09.420Z,0.87
2022-08-08T07:40:32.908Z,1.23
2022-08-08T07:46:18.145Z,1.10
2022-08-08T07:51:45.533Z,1.17
2022-08-08T07:57:48.175Z,1.45
2022-08-08T08:03:23.606Z,1.10
2022-08-08T08:09:00.651Z,0.85
2022-08-08T08:14:53.801Z,0.82
2022-08-08T08:20:18.776Z,0.82
2022-08-08T08:25:46.818Z,0.70
2022-08-08T08:31:15.120Z,0.98
2022-08-08T08:36:39.387Z,0.73
2022-08-08T08:42:02.583Z,0.70
2022-08-08T08:47:26.011Z,0.80
2022-08-08T08:52:59.520Z,0.60
2022-08-08T08:58:30.870Z,0.60
2022-08-08T09:03:59.643Z,0.90
2022-08-08T09:09:35.294Z,1.10
2022-08-08T09:15:02.308Z,0.60
2022-08-08T09:22:04.774Z,0.65
2022-08-08T09:26:26.964Z,0.88
2022-08-08T09:32:05.739Z,2.03
2022-08-08T09:38:00.839Z,0.98
2022-08-08T09:43:40.873Z,0.82
2022-08-08T09:49:40.870Z,0.60
2022-08-08T09:54:54.467Z,0.68
2022-08-08T10:00:49.663Z,0.93
2022-08-08T10:06:01.069Z,0.60
2022-08-08T10:12:27.746Z,0.68
2022-08-08T10:17:57.098Z,0.82
2022-08-08T10:22:59.592Z,0.80
2022-08-08T10:28:25.631Z,0.63
2022-08-08T10:34:20.250Z,0.88
2022-08-08T10:39:53.616Z,0.82
2022-08-08T10:45:17.021Z,0.65
2022-08-08T10:50:39.935Z,0.60
2022-08-08T10:56:04.817Z,0.63
2022-08-08T11:01:33.476Z,0.63
2022-08-08T11:07:00.355Z,0.63
2022-08-08T11:12:22.309Z,0.50
2022-08-08T11:18:01.297Z,0.50
2022-08-08T11:23:25.024Z,0.90
2022-08-08T11:28:56.106Z,0.47
2022-08-08T11:34:23.373Z,0.98
2022-08-08T11:39:57.469Z,0.85
2022-08-08T11:45:22.585Z,0.70
2022-08-08T11:50:47.697Z,0.60
2022-08-08T11:56:24.346Z,0.70
2022-08-08T12:01:46.846Z,0.73
2022-08-08T12:07:16.790Z,0.73
2022-08-08T12:12:48.696Z,0.60
2022-08-08T12:18:21.350Z,0.80
2022-08-08T12:23:59.527Z,0.50
2022-08-08T12:29:40.640Z,0.63
2022-08-08T12:35:17.903Z,0.50
2022-08-08T12:40:56.796Z,0.70
2022-08-08T12:46:26.122Z,0.63
2022-08-08T12:51:50.194Z,0.70
2022-08-08T12:57:23.460Z,0.65
2022-08-08T13:02:58.174Z,0.97
2022-08-08T13:08:22.713Z,1.00
2022-08-08T13:14:04.023Z,1.10
2022-08-08T13:19:26.216Z,0.98
2022-08-08T13:25:15.642Z,0.75
2022-08-08T13:30:37.578Z,0.90
2022-08-08T13:36:00.289Z,0.80
2022-08-08T13:41:23.143Z,0.65
2022-08-08T13:47:02.290Z,0.98
2022-08-08T13:52:37.464Z,0.60
2022-08-08T13:58:07.407Z,0.77
2022-08-08T14:03:52.637Z,0.63
2022-08-08T14:09:24.863Z,0.90
2022-08-08T14:14:52.037Z,0.70
2022-08-08T14:20:41.907Z,1.05
2022-08-08T14:26:00.679Z,0.63
2022-08-08T14:32:06.181Z,1.10
2022-08-08T14:37:16.993Z,0.70
2022-08-08T14:42:54.675Z,0.93
2022-08-08T14:48:34.540Z,1.02
2022-08-08T14:54:02.965Z,0.98
2022-08-08T14:59:44.641Z,0.80
2022-08-08T15:05:10.623Z,1.10
2022-08-08T15:10:33.657Z,1.13
2022-08-08T15:16:02.654Z,0.75
2022-08-08T15:21:27.529Z,0.80
2022-08-08T15:26:53.187Z,0.90
2022-08-08T15:32:20.645Z,0.82
2022-08-08T15:37:44.948Z,0.80
2022-08-08T15:43:18.648Z,1.00
2022-08-08T15:48:48.761Z,1.00
2022-08-08T15:54:18.419Z,1.48
2022-08-08T16:00:06.848Z,0.50
2022-08-08T16:06:00.936Z,0.70
2022-08-08T16:13:11.563Z,0.50
2022-08-08T16:17:02.220Z,0.60
2022-08-08T16:22:29.010Z,0.90
2022-08-08T16:27:57.959Z,1.08
2022-08-08T16:33:20.153Z,0.70
2022-08-08T16:39:17.053Z,0.90
2022-08-08T16:44:47.433Z,0.90
2022-08-08T16:50:16.716Z,0.80
2022-08-08T16:55:52.610Z,0.93
2022-08-08T17:01:16.713Z,0.75
2022-08-08T17:06:43.881Z,0.80
2022-08-08T17:12:07.597Z,0.65
2022-08-08T17:18:01.458Z,0.90
2022-08-08T17:23:58.634Z,1.05
2022-08-08T17:29:03.921Z,0.80
2022-08-08T17:34:48.550Z,1.27
2022-08-08T17:40:12.352Z,1.02
2022-08-08T17:45:36.615Z,1.10
2022-08-08T17:50:59.279Z,1.38
2022-08-08T17:56:21.114Z,1.10
2022-08-08T18:01:54.004Z,1.27
2022-08-08T18:08:03.500Z,1.00
2022-08-08T18:12:57.860Z,1.27
2022-08-08T18:18:28.811Z,1.10
2022-08-08T18:23:56.138Z,1.60
2022-08-08T18:29:20.792Z,1.50
2022-08-08T18:34:45.944Z,1.38
2022-08-08T18:40:13.012Z,1.42
2022-08-08T18:46:00.450Z,1.45
2022-08-08T18:51:40.603Z,1.80
2022-08-08T18:56:58.987Z,1.90
2022-08-08T19:02:27.995Z,1.75
2022-08-08T19:07:52.270Z,2.22
2022-08-08T19:13:21.423Z,1.83
2022-08-08T19:18:51.850Z,1.95
2022-08-08T19:24:42.331Z,1.60
2022-08-08T19:30:01.363Z,2.20
2022-08-08T19:35:25.696Z,2.20
2022-08-08T19:41:05.796Z,1.92
2022-08-08T19:46:28.204Z,2.15
2022-08-08T19:51:55.609Z,1.75
2022-08-08T19:57:17.501Z,2.22
2022-08-08T20:02:39.955Z,1.77
2022-08-08T20:08:39.674Z,2.00
2022-08-08T20:14:11.936Z,1.90
2022-08-08T20:19:26.307Z,2.22
2022-08-08T20:24:56.752Z,2.38
2022-08-08T20:30:52.715Z,2.55
2022-08-08T20:36:08.610Z,2.17
2022-08-08T20:41:30.667Z,2.75
2022-08-08T20:46:55.747Z,2.08
2022-08-08T20:52:17.608Z,2.40
2022-08-08T20:57:43.883Z,2.17
2022-08-08T21:03:09.635Z,2.38
2022-08-08T21:08:49.079Z,2.90
2022-08-08T21:14:11.281Z,2.72
2022-08-08T21:19:45.210Z,2.15
2022-08-08T21:25:10.776Z,1.80
2022-08-08T21:30:36.527Z,1.90
2022-08-08T21:36:16.423Z,2.33
2022-08-08T21:41:51.176Z,2.72
2022-08-08T21:48:20.366Z,2.03
2022-08-08T21:54:33.038Z,2.30
2022-08-08T21:58:44.423Z,2.15
2022-08-08T22:04:16.602Z,2.30
2022-08-08T22:09:41.352Z,2.30
2022-08-08T22:15:07.714Z,2.08
2022-08-08T22:20:29.553Z,2.33
2022-08-08T22:26:26.648Z,1.98
2022-08-08T22:31:35.245Z,2.67
2022-08-08T22:36:57.281Z,2.30
2022-08-08T22:42:27.509Z,2.45
2022-08-08T22:47:54.138Z,3.38
2022-08-08T22:54:33.848Z,2.20
2022-08-08T22:58:58.045Z,2.35
2022-08-08T23:04:32.219Z,2.60
2022-08-08T23:09:58.714Z,2.47
2022-08-08T23:16:39.063Z,2.70
2022-08-08T23:21:04.068Z,1.88
2022-08-08T23:26:27.144Z,2.28
2022-08-08T23:31:48.990Z,2.22
2022-08-08T23:37:12.197Z,2.60
2022-08-08T23:42:34.329Z,2.30
2022-08-08T23:49:00.411Z,2.95
2022-08-08T23:54:05.589Z,2.92
2022-08-08T23:59:19.977Z,2.42
